createdAt,value
2018-07-12T00:00:05.341Z,17.53
2018-07-12T00:01:05.359Z,17.46
2018-07-12T00:02:05.381Z,17.45
2018-07-12T00:03:05.410Z,17.45
2018-07-12T00:04:05.432Z,17.54
2018-07-12T00:05:05.461Z,17.54
2018-07-12T00:06:05.483Z,17.46
2018-07-12T00:07:05.504Z,17.54
2018-07-12T00:08:05.528Z,17.46
2018-07-12T00:09:05.552Z,17.51
2018-07-12T00:10:05.578Z,17.49
2018-07-12T00:11:05.599Z,17.54
2018-07-12T00:12:05.634Z,17.49
2018-07-12T00:13:05.649Z,17.58
2018-07-12T00:14:05.670Z,17.51
2018-07-12T00:15:05.696Z,17.60
2018-07-12T00:16:05.717Z,17.46
2018-07-12T00:17:05.746Z,17.66
2018-07-12T00:18:05.771Z,17.65
2018-07-12T00:19:05.789Z,17.62
2018-07-12T00:20:05.815Z,17.66
2018-07-12T00:21:05.841Z,17.65
2018-07-12T00:22:05.871Z,17.76
2018-07-12T00:23:05.890Z,17.74
2018-07-12T00:24:05.917Z,17.66
2018-07-12T00:25:05.937Z,17.71
2018-07-12T00:26:05.959Z,17.65
2018-07-12T00:27:05.984Z,17.63
2018-07-12T00:28:06.011Z,17.62
2018-07-12T00:29:06.035Z,17.63
2018-07-12T00:30:06.060Z,17.62
2018-07-12T00:31:06.088Z,17.65
2018-07-12T00:32:06.105Z,17.66
2018-07-12T00:33:06.129Z,17.63
2018-07-12T00:34:06.157Z,17.63
2018-07-12T00:35:06.174Z,17.62
2018-07-12T00:36:06.204Z,17.66
2018-07-12T00:37:06.230Z,17.70
2018-07-12T00:38:06.248Z,17.65
2018-07-12T00:39:06.279Z,17.63
2018-07-12T00:40:06.303Z,17.65
2018-07-12T00:41:06.326Z,17.68
2018-07-12T00:42:06.346Z,17.66
2018-07-12T00:43:06.376Z,17.70
2018-07-12T00:44:06.398Z,17.63
2018-07-12T00:45:06.422Z,17.58
2018-07-12T00:46:06.444Z,17.65
2018-07-12T00:47:06.473Z,17.58
2018-07-12T00:48:06.497Z,17.62
2018-07-12T00:49:06.522Z,17.53
2018-07-12T00:50:06.545Z,17.62
2018-07-12T00:51:06.568Z,17.65
2018-07-12T00:52:06.592Z,17.65
2018-07-12T00:53:06.615Z,17.66
2018-07-12T00:54:06.642Z,17.66
2018-07-12T00:55:06.662Z,17.65
2018-07-12T00:56:06.698Z,17.65
2018-07-12T00:57:06.717Z,17.66
2018-07-12T00:58:06.742Z,17.63
2018-07-12T00:59:06.757Z,17.70
2018-07-12T01:00:06.791Z,17.53
2018-07-12T01:01:06.811Z,17.57
2018-07-12T01:02:06.835Z,17.47
2018-07-12T01:03:06.864Z,17.51
2018-07-12T01:04:06.886Z,17.47
2018-07-12T01:05:06.904Z,17.54
2018-07-12T01:06:06.934Z,17.43
2018-07-12T01:07:06.955Z,17.38
2018-07-12T01:08:06.978Z,17.49
2018-07-12T01:09:07.003Z,17.43
2018-07-12T01:10:07.027Z,17.55
2018-07-12T01:11:07.047Z,17.49
2018-07-12T01:12:07.077Z,17.51
2018-07-12T01:13:07.097Z,17.46
2018-07-12T01:14:07.123Z,17.49
2018-07-12T01:15:07.146Z,17.53
2018-07-12T01:16:07.171Z,17.49
2018-07-12T01:17:07.198Z,17.54
2018-07-12T01:18:07.223Z,17.53
2018-07-12T01:19:07.244Z,17.65
2018-07-12T01:20:07.267Z,17.51
2018-07-12T01:21:07.296Z,17.49
2018-07-12T01:22:07.320Z,17.58
2018-07-12T01:23:07.340Z,17.62
2018-07-12T01:24:07.368Z,17.63
2018-07-12T01:25:07.389Z,17.60
2018-07-12T01:26:07.414Z,17.66
2018-07-12T01:27:07.436Z,17.63
2018-07-12T01:28:07.462Z,17.74
2018-07-12T01:29:07.486Z,17.77
2018-07-12T01:30:07.511Z,17.71
2018-07-12T01:31:07.539Z,17.79
2018-07-12T01:32:07.564Z,17.81
2018-07-12T01:33:07.585Z,17.83
2018-07-12T01:34:07.604Z,17.83
2018-07-12T01:35:07.628Z,17.84
2018-07-12T01:36:07.710Z,17.84
2018-07-12T01:37:07.681Z,17.80
2018-07-12T01:38:07.706Z,17.79
2018-07-12T01:39:07.732Z,17.80
2018-07-12T01:40:07.756Z,17.77
2018-07-12T01:41:07.776Z,17.74
2018-07-12T01:42:07.801Z,17.73
2018-07-12T01:43:07.823Z,17.73
2018-07-12T01:44:07.844Z,17.63
2018-07-12T01:45:07.875Z,17.66
2018-07-12T01:46:07.897Z,17.74
2018-07-12T01:47:07.926Z,17.80
2018-07-12T01:48:07.945Z,17.86
2018-07-12T01:49:07.971Z,17.81
2018-07-12T01:50:07.995Z,17.74
2018-07-12T01:51:08.016Z,17.81
2018-07-12T01:52:08.046Z,17.73
2018-07-12T01:53:08.073Z,17.76
2018-07-12T01:54:08.100Z,17.87
2018-07-12T01:55:08.114Z,17.83
2018-07-12T01:56:08.144Z,17.87
2018-07-12T01:57:08.164Z,17.83
2018-07-12T01:58:08.188Z,17.80
2018-07-12T01:59:08.210Z,17.83
2018-07-12T02:00:08.236Z,17.79
2018-07-12T02:01:08.260Z,17.76
2018-07-12T02:02:08.290Z,17.84
2018-07-12T02:03:08.308Z,17.84
2018-07-12T02:04:08.334Z,17.68
2018-07-12T02:05:08.357Z,17.73
2018-07-12T02:06:08.382Z,17.70
2018-07-12T02:07:08.402Z,17.76
2018-07-12T02:08:08.434Z,17.76
2018-07-12T02:09:08.454Z,17.62
2018-07-12T02:10:08.480Z,17.71
2018-07-12T02:11:08.502Z,17.70
2018-07-12T02:12:08.590Z,17.66
2018-07-12T02:13:08.555Z,17.58
2018-07-12T02:14:08.574Z,17.65
2018-07-12T02:15:08.600Z,17.49
2018-07-12T02:16:08.624Z,17.54
2018-07-12T02:17:08.650Z,17.49
2018-07-12T02:18:08.673Z,17.42
2018-07-12T02:19:08.701Z,17.36
2018-07-12T02:20:08.726Z,17.39
2018-07-12T02:21:08.746Z,17.30
2018-07-12T02:22:08.766Z,17.36
2018-07-12T02:23:08.801Z,17.33
2018-07-12T02:24:08.845Z,17.39
2018-07-12T02:25:08.842Z,17.36
2018-07-12T02:26:08.876Z,17.39
2018-07-12T02:27:08.892Z,17.36
2018-07-12T02:28:08.916Z,17.35
2018-07-12T02:29:08.952Z,17.36
2018-07-12T02:30:08.962Z,17.36
2018-07-12T02:31:08.993Z,17.33
2018-07-12T02:32:09.011Z,17.35
2018-07-12T02:33:09.042Z,17.32
2018-07-12T02:34:09.060Z,17.33
2018-07-12T02:35:09.200Z,17.28
2018-07-12T02:36:09.114Z,17.35
2018-07-12T02:37:09.131Z,17.35
2018-07-12T02:38:09.156Z,17.32
2018-07-12T02:39:09.176Z,17.32
2018-07-12T02:40:09.202Z,17.36
2018-07-12T02:41:09.224Z,17.33
2018-07-12T02:42:09.256Z,17.22
2018-07-12T02:43:09.282Z,17.24
2018-07-12T02:44:09.296Z,17.12
2018-07-12T02:45:09.326Z,17.24
2018-07-12T02:46:09.346Z,17.21
2018-07-12T02:47:09.373Z,17.18
2018-07-12T02:48:09.392Z,17.17
2018-07-12T02:49:09.422Z,17.14
2018-07-12T02:50:09.446Z,17.22
2018-07-12T02:51:09.466Z,17.15
2018-07-12T02:52:09.490Z,17.14
2018-07-12T02:53:09.514Z,17.07
2018-07-12T02:54:09.544Z,17.12
2018-07-12T02:55:09.562Z,17.20
2018-07-12T02:56:09.587Z,17.20
2018-07-12T02:57:09.614Z,17.22
2018-07-12T02:58:09.634Z,17.10
2018-07-12T02:59:09.660Z,17.14
2018-07-12T03:00:09.682Z,17.22
2018-07-12T03:01:09.702Z,17.12
2018-07-12T03:02:09.732Z,17.18
2018-07-12T03:03:09.754Z,17.17
2018-07-12T03:04:09.782Z,17.18
2018-07-12T03:05:09.805Z,17.15
2018-07-12T03:06:09.826Z,17.17
2018-07-12T03:07:09.849Z,17.20
2018-07-12T03:08:09.879Z,17.17
2018-07-12T03:09:09.900Z,17.09
2018-07-12T03:10:09.920Z,17.06
2018-07-12T03:11:09.945Z,17.20
2018-07-12T03:12:09.970Z,17.14
2018-07-12T03:13:09.990Z,17.14
2018-07-12T03:14:10.022Z,17.10
2018-07-12T03:15:10.043Z,17.14
2018-07-12T03:16:10.062Z,17.24
2018-07-12T03:17:10.091Z,17.27
2018-07-12T03:18:10.116Z,17.20
2018-07-12T03:19:10.135Z,17.18
2018-07-12T03:20:10.165Z,17.22
2018-07-12T03:21:10.188Z,17.18
2018-07-12T03:22:10.212Z,17.22
2018-07-12T03:23:10.232Z,17.24
2018-07-12T03:24:10.256Z,17.14
2018-07-12T03:25:10.280Z,17.22
2018-07-12T03:26:10.304Z,17.25
2018-07-12T03:27:10.330Z,17.21
2018-07-12T03:28:10.353Z,17.20
2018-07-12T03:29:10.384Z,17.20
2018-07-12T03:30:10.403Z,17.22
2018-07-12T03:31:10.422Z,17.24
2018-07-12T03:32:10.447Z,17.21
2018-07-12T03:33:10.470Z,17.25
2018-07-12T03:34:10.498Z,17.28
2018-07-12T03:35:10.518Z,17.20
2018-07-12T03:36:10.546Z,17.10
2018-07-12T03:37:10.578Z,17.14
2018-07-12T03:38:10.592Z,17.03
2018-07-12T03:39:10.609Z,17.09
2018-07-12T03:40:10.634Z,17.03
2018-07-12T03:41:10.664Z,17.03
2018-07-12T03:42:10.684Z,17.15
2018-07-12T03:43:10.711Z,17.21
2018-07-12T03:44:10.738Z,17.21
2018-07-12T03:45:10.759Z,17.21
2018-07-12T03:46:10.788Z,17.22
2018-07-12T03:47:10.807Z,17.22
2018-07-12T03:48:10.831Z,17.24
2018-07-12T03:49:10.858Z,17.21
2018-07-12T03:50:10.878Z,17.28
2018-07-12T03:51:10.911Z,17.32
2018-07-12T03:52:10.928Z,17.30
2018-07-12T03:53:10.952Z,17.30
2018-07-12T03:54:10.972Z,17.24
2018-07-12T03:55:10.996Z,17.33
2018-07-12T03:56:11.024Z,17.27
2018-07-12T03:57:11.045Z,17.24
2018-07-12T03:58:11.241Z,17.20
2018-07-12T03:59:11.090Z,17.28
2018-07-12T04:00:11.123Z,17.24
2018-07-12T04:01:11.144Z,17.20
2018-07-12T04:02:11.162Z,17.32
2018-07-12T04:03:11.192Z,17.32
2018-07-12T04:04:11.206Z,17.33
2018-07-12T04:05:11.239Z,17.36
2018-07-12T04:06:11.264Z,17.38
2018-07-12T04:07:11.280Z,17.35
2018-07-12T04:08:11.308Z,17.33
2018-07-12T04:09:11.334Z,17.40
2018-07-12T04:10:11.360Z,17.47
2018-07-12T04:11:11.386Z,17.43
2018-07-12T04:12:11.404Z,17.42
2018-07-12T04:13:11.428Z,17.49
2018-07-12T04:14:11.454Z,17.43
2018-07-12T04:15:11.478Z,17.53
2018-07-12T04:16:11.508Z,17.49
2018-07-12T04:17:11.522Z,17.45
2018-07-12T04:18:11.552Z,17.43
2018-07-12T04:19:11.573Z,17.43
2018-07-12T04:20:11.594Z,17.49
2018-07-12T04:21:11.623Z,17.42
2018-07-12T04:22:11.648Z,17.42
2018-07-12T04:23:11.670Z,17.45
2018-07-12T04:24:11.695Z,17.51
2018-07-12T04:25:11.718Z,17.53
2018-07-12T04:26:11.742Z,17.58
2018-07-12T04:27:11.769Z,17.47
2018-07-12T04:28:11.794Z,17.58
2018-07-12T04:29:11.813Z,17.66
2018-07-12T04:30:11.841Z,17.65
2018-07-12T04:31:11.860Z,17.60
2018-07-12T04:32:11.889Z,17.66
2018-07-12T04:33:11.911Z,17.66
2018-07-12T04:34:11.938Z,17.66
2018-07-12T04:35:11.972Z,17.65
2018-07-12T04:36:11.986Z,17.60
2018-07-12T04:37:12.009Z,17.63
2018-07-12T04:38:12.034Z,17.73
2018-07-12T04:39:12.052Z,17.74
2018-07-12T04:40:12.079Z,17.73
2018-07-12T04:41:12.105Z,17.80
2018-07-12T04:42:12.126Z,17.84
2018-07-12T04:43:12.154Z,17.94
2018-07-12T04:44:12.179Z,17.84
2018-07-12T04:45:12.198Z,17.92
2018-07-12T04:46:12.222Z,17.96
2018-07-12T04:47:12.248Z,17.95
2018-07-12T04:48:12.268Z,17.99
2018-07-12T04:49:12.298Z,18.01
2018-07-12T04:50:12.322Z,17.98
2018-07-12T04:51:12.349Z,18.07
2018-07-12T04:52:12.375Z,18.07
2018-07-12T04:53:12.390Z,18.14
2018-07-12T04:54:12.422Z,18.16
2018-07-12T04:55:12.438Z,18.17
2018-07-12T04:56:12.468Z,18.20
2018-07-12T04:57:12.488Z,18.26
2018-07-12T04:58:12.614Z,18.25
2018-07-12T04:59:12.545Z,18.28
2018-07-12T05:00:12.564Z,18.36
2018-07-12T05:01:12.586Z,18.39
2018-07-12T05:02:12.611Z,18.19
2018-07-12T05:03:12.638Z,18.28
2018-07-12T05:04:12.662Z,18.26
2018-07-12T05:05:12.687Z,18.25
2018-07-12T05:06:12.715Z,18.29
2018-07-12T05:07:12.731Z,18.29
2018-07-12T05:08:12.841Z,18.34
2018-07-12T05:09:12.783Z,18.34
2018-07-12T05:10:12.813Z,18.38
2018-07-12T05:11:12.833Z,18.42
2018-07-12T05:12:12.859Z,18.44
2018-07-12T05:13:12.883Z,18.54
2018-07-12T05:14:12.904Z,18.62
2018-07-12T05:15:12.931Z,18.65
2018-07-12T05:16:13.073Z,18.65
2018-07-12T05:17:12.988Z,18.59
2018-07-12T05:18:13.010Z,18.60
2018-07-12T05:19:13.031Z,18.57
2018-07-12T05:20:13.054Z,18.68
2018-07-12T05:21:13.083Z,18.57
2018-07-12T05:22:13.106Z,18.62
2018-07-12T05:23:13.139Z,18.66
2018-07-12T05:24:13.160Z,18.59
2018-07-12T05:25:13.183Z,18.56
2018-07-12T05:26:13.205Z,18.59
2018-07-12T05:27:13.227Z,18.46
2018-07-12T05:28:13.250Z,18.57
2018-07-12T05:29:13.273Z,18.62
2018-07-12T05:30:13.299Z,18.69
2018-07-12T05:31:13.332Z,18.72
2018-07-12T05:32:13.355Z,18.72
2018-07-12T05:33:13.384Z,18.76
2018-07-12T05:34:13.399Z,18.78
2018-07-12T05:35:13.433Z,18.72
2018-07-12T05:36:13.449Z,18.75
2018-07-12T05:37:13.475Z,18.78
2018-07-12T05:38:13.498Z,18.82
2018-07-12T05:39:13.536Z,18.76
2018-07-12T05:40:13.546Z,18.76
2018-07-12T05:41:13.574Z,18.69
2018-07-12T05:42:13.597Z,18.74
2018-07-12T05:43:13.626Z,18.76
2018-07-12T05:44:13.650Z,18.69
2018-07-12T05:45:13.677Z,18.74
2018-07-12T05:46:13.705Z,18.76
2018-07-12T05:47:13.720Z,18.74
2018-07-12T05:48:13.752Z,18.78
2018-07-12T05:49:13.776Z,18.75
2018-07-12T05:50:13.801Z,18.87
2018-07-12T05:51:13.819Z,18.84
2018-07-12T05:52:13.845Z,18.91
2018-07-12T05:53:13.877Z,18.90
2018-07-12T05:54:13.894Z,18.90
2018-07-12T05:55:13.927Z,18.97
2018-07-12T05:56:13.946Z,19.12
2018-07-12T05:57:13.972Z,19.10
2018-07-12T05:58:14.001Z,19.12
2018-07-12T05:59:14.022Z,19.27
2018-07-12T06:00:14.053Z,19.24
2018-07-12T06:01:14.075Z,19.23
2018-07-12T06:02:14.093Z,19.15
2018-07-12T06:03:14.118Z,19.23
2018-07-12T06:04:14.149Z,19.20
2018-07-12T06:05:14.173Z,19.13
2018-07-12T06:06:14.207Z,19.10
2018-07-12T06:07:14.224Z,19.20
2018-07-12T06:08:14.249Z,19.20
2018-07-12T06:09:14.277Z,19.25
2018-07-12T06:10:14.294Z,19.35
2018-07-12T06:11:14.318Z,19.23
2018-07-12T06:12:14.346Z,19.35
2018-07-12T06:13:14.435Z,19.42
2018-07-12T06:14:14.401Z,19.38
2018-07-12T06:15:14.424Z,19.40
2018-07-12T06:16:14.460Z,19.45
2018-07-12T06:17:14.477Z,19.50
2018-07-12T06:18:14.502Z,19.60
2018-07-12T06:19:14.526Z,19.64
2018-07-12T06:20:14.550Z,19.70
2018-07-12T06:21:14.574Z,19.71
2018-07-12T06:22:14.604Z,19.64
2018-07-12T06:23:14.630Z,19.67
2018-07-12T06:24:14.656Z,19.58
2018-07-12T06:25:14.688Z,19.45
2018-07-12T06:26:14.702Z,19.47
2018-07-12T06:27:14.731Z,19.43
2018-07-12T06:28:14.753Z,19.40
2018-07-12T06:29:14.777Z,19.46
2018-07-12T06:30:14.807Z,19.43
2018-07-12T06:31:14.830Z,19.39
2018-07-12T06:32:14.859Z,19.38
2018-07-12T06:33:14.877Z,19.39
2018-07-12T06:34:14.904Z,19.30
2018-07-12T06:35:14.927Z,19.27
2018-07-12T06:36:14.954Z,19.24
2018-07-12T06:37:15.019Z,19.12
2018-07-12T06:38:15.021Z,19.13
2018-07-12T06:39:15.029Z,19.09
2018-07-12T06:40:15.053Z,19.12
2018-07-12T06:41:15.081Z,19.09
2018-07-12T06:42:15.108Z,19.12
2018-07-12T06:43:15.133Z,19.09
2018-07-12T06:44:15.155Z,19.06
2018-07-12T06:45:15.186Z,19.09
2018-07-12T06:46:15.206Z,19.09
2018-07-12T06:47:15.234Z,19.06
2018-07-12T06:48:15.257Z,19.06
2018-07-12T06:49:15.289Z,19.05
2018-07-12T06:50:15.307Z,19.01
2018-07-12T06:51:15.333Z,19.01
2018-07-12T06:52:15.358Z,18.99
2018-07-12T06:53:15.382Z,19.06
2018-07-12T06:54:15.415Z,19.01
2018-07-12T06:55:15.433Z,18.99
2018-07-12T06:56:15.463Z,19.01
2018-07-12T06:57:15.487Z,19.01
2018-07-12T06:58:15.510Z,18.97
2018-07-12T06:59:15.531Z,18.99
2018-07-12T07:00:15.562Z,19.02
2018-07-12T07:01:15.583Z,19.01
2018-07-12T07:02:15.614Z,19.02
2018-07-12T07:03:15.633Z,19.05
2018-07-12T07:04:15.664Z,19.07
2018-07-12T07:05:15.683Z,19.12
2018-07-12T07:06:15.713Z,19.13
2018-07-12T07:07:15.730Z,19.15
2018-07-12T07:08:15.758Z,19.13
2018-07-12T07:09:15.784Z,19.20
2018-07-12T07:10:15.810Z,19.21
2018-07-12T07:11:15.832Z,19.20
2018-07-12T07:12:15.865Z,19.21
2018-07-12T07:13:15.890Z,19.20
2018-07-12T07:14:15.910Z,19.10
2018-07-12T07:15:15.941Z,19.28
2018-07-12T07:16:15.960Z,19.24
2018-07-12T07:17:15.984Z,19.27
2018-07-12T07:18:16.005Z,19.35
2018-07-12T07:19:16.032Z,19.42
2018-07-12T07:20:16.121Z,19.38
2018-07-12T07:21:16.100Z,19.47
2018-07-12T07:22:16.111Z,19.47
2018-07-12T07:23:16.137Z,19.49
2018-07-12T07:24:16.160Z,19.49
2018-07-12T07:25:16.181Z,19.43
2018-07-12T07:26:16.267Z,19.53
2018-07-12T07:27:16.237Z,19.53
2018-07-12T07:28:16.263Z,19.58
2018-07-12T07:29:16.286Z,19.57
2018-07-12T07:30:16.314Z,19.61
2018-07-12T07:31:16.337Z,19.60
2018-07-12T07:32:16.365Z,19.67
2018-07-12T07:33:16.394Z,19.68
2018-07-12T07:34:16.412Z,19.64
2018-07-12T07:35:16.441Z,19.71
2018-07-12T07:36:16.464Z,19.76
2018-07-12T07:37:16.486Z,19.78
2018-07-12T07:38:16.515Z,19.68
2018-07-12T07:39:16.531Z,19.78
2018-07-12T07:40:16.560Z,19.78
2018-07-12T07:41:16.598Z,19.78
2018-07-12T07:42:16.610Z,19.79
2018-07-12T07:43:16.717Z,19.79
2018-07-12T07:44:16.664Z,19.85
2018-07-12T07:45:16.684Z,19.86
2018-07-12T07:46:16.721Z,19.90
2018-07-12T07:47:16.734Z,19.85
2018-07-12T07:48:16.766Z,20.10
2018-07-12T07:49:16.842Z,20.05
2018-07-12T07:50:16.817Z,20.13
2018-07-12T07:51:16.839Z,20.15
2018-07-12T07:52:16.857Z,20.13
2018-07-12T07:53:16.891Z,20.17
2018-07-12T07:54:16.914Z,20.16
2018-07-12T07:55:16.946Z,20.17
2018-07-12T07:56:16.974Z,20.27
2018-07-12T07:57:16.992Z,20.19
2018-07-12T07:58:17.029Z,20.20
2018-07-12T07:59:17.055Z,20.23
2018-07-12T08:00:17.078Z,20.23
2018-07-12T08:01:17.102Z,20.22
2018-07-12T08:02:17.122Z,20.22
2018-07-12T08:03:17.204Z,20.30
2018-07-12T08:04:17.175Z,20.25
2018-07-12T08:05:17.192Z,20.27
2018-07-12T08:06:17.220Z,20.37
2018-07-12T08:07:17.250Z,20.42
2018-07-12T08:08:17.274Z,20.37
2018-07-12T08:09:17.304Z,20.34
2018-07-12T08:10:17.332Z,20.46
2018-07-12T08:11:17.351Z,20.44
2018-07-12T08:12:17.380Z,20.46
2018-07-12T08:13:17.398Z,20.51
2018-07-12T08:14:17.424Z,20.53
2018-07-12T08:15:17.487Z,20.48
2018-07-12T08:16:17.482Z,20.51
2018-07-12T08:17:17.498Z,20.54
2018-07-12T08:18:17.530Z,20.57
2018-07-12T08:19:17.556Z,20.58
2018-07-12T08:20:17.580Z,20.68
2018-07-12T08:21:17.611Z,20.69
2018-07-12T08:22:17.635Z,20.75
2018-07-12T08:23:17.660Z,20.79
2018-07-12T08:24:17.684Z,20.79
2018-07-12T08:25:17.711Z,20.78
2018-07-12T08:26:17.740Z,20.88
2018-07-12T08:27:17.757Z,20.85
2018-07-12T08:28:17.786Z,20.96
2018-07-12T08:29:17.812Z,20.93
2018-07-12T08:30:17.837Z,20.97
2018-07-12T08:31:17.923Z,20.97
2018-07-12T08:32:17.891Z,20.96
2018-07-12T08:33:17.986Z,20.94
2018-07-12T08:34:17.937Z,21.03
2018-07-12T08:35:17.965Z,20.96
2018-07-12T08:36:18.051Z,21.01
2018-07-12T08:37:18.019Z,21.08
2018-07-12T08:38:18.044Z,21.03
2018-07-12T08:39:18.063Z,20.98
2018-07-12T08:40:18.090Z,21.08
2018-07-12T08:41:18.118Z,21.05
2018-07-12T08:42:18.165Z,21.06
2018-07-12T08:43:18.168Z,21.15
2018-07-12T08:44:18.200Z,21.12
2018-07-12T08:45:18.216Z,21.12
2018-07-12T08:46:18.292Z,21.13
2018-07-12T08:47:18.276Z,21.22
2018-07-12T08:48:18.356Z,21.24
2018-07-12T08:49:18.332Z,21.24
2018-07-12T08:50:18.348Z,21.26
2018-07-12T08:51:18.373Z,21.26
2018-07-12T08:52:18.400Z,21.31
2018-07-12T08:53:18.430Z,21.28
2018-07-12T08:54:18.459Z,21.31
2018-07-12T08:55:18.483Z,21.31
2018-07-12T08:56:18.507Z,21.40
2018-07-12T08:57:18.527Z,21.40
2018-07-12T08:58:18.556Z,21.33
2018-07-12T08:59:18.577Z,21.46
2018-07-12T09:00:18.608Z,21.48
2018-07-12T09:01:18.638Z,21.51
2018-07-12T09:02:18.659Z,21.55
2018-07-12T09:03:18.683Z,21.52
2018-07-12T09:04:18.715Z,21.64
2018-07-12T09:05:18.733Z,21.66
2018-07-12T09:06:18.761Z,21.58
2018-07-12T09:07:18.784Z,21.58
2018-07-12T09:08:18.817Z,21.63
2018-07-12T09:09:18.840Z,21.59
2018-07-12T09:10:18.865Z,21.56
2018-07-12T09:11:18.895Z,21.70
2018-07-12T09:12:18.919Z,21.70
2018-07-12T09:13:18.943Z,21.77
2018-07-12T09:14:18.967Z,21.82
2018-07-12T09:15:18.993Z,21.83
2018-07-12T09:16:19.022Z,21.90
2018-07-12T09:17:19.047Z,21.91
2018-07-12T09:18:19.075Z,21.91
2018-07-12T09:19:19.096Z,21.86
2018-07-12T09:20:19.123Z,21.85
2018-07-12T09:21:19.158Z,21.86
2018-07-12T09:22:19.177Z,21.91
2018-07-12T09:23:19.201Z,21.98
2018-07-12T09:24:19.229Z,22.05
2018-07-12T09:25:19.298Z,22.02
2018-07-12T09:26:19.286Z,22.04
2018-07-12T09:27:19.304Z,22.08
2018-07-12T09:28:19.331Z,22.04
2018-07-12T09:29:19.396Z,22.08
2018-07-12T09:30:19.386Z,22.02
2018-07-12T09:31:19.409Z,22.05
2018-07-12T09:32:19.436Z,22.11
2018-07-12T09:33:19.460Z,22.24
2018-07-12T09:34:19.493Z,22.29
2018-07-12T09:35:19.534Z,22.33
2018-07-12T09:36:19.540Z,22.39
2018-07-12T09:37:19.568Z,22.46
2018-07-12T09:38:19.593Z,22.59
2018-07-12T09:39:19.615Z,22.75
2018-07-12T09:40:19.642Z,22.70
2018-07-12T09:41:19.672Z,22.85
2018-07-12T09:42:19.695Z,22.94
2018-07-12T09:43:19.729Z,22.99
2018-07-12T09:44:19.749Z,23.04
2018-07-12T09:45:19.777Z,23.04
2018-07-12T09:46:19.807Z,23.04
2018-07-12T09:47:19.869Z,23.07
2018-07-12T09:48:19.853Z,23.07
2018-07-12T09:49:19.962Z,23.09
2018-07-12T09:50:19.915Z,23.12
2018-07-12T09:51:19.985Z,23.06
2018-07-12T09:52:19.953Z,22.97
2018-07-12T09:53:19.989Z,22.93
2018-07-12T09:54:20.018Z,23.04
2018-07-12T09:55:20.037Z,23.04
2018-07-12T09:56:20.255Z,23.06
2018-07-12T09:57:20.096Z,23.11
2018-07-12T09:58:20.122Z,23.11
2018-07-12T09:59:20.147Z,23.06
2018-07-12T10:00:20.169Z,23.01
2018-07-12T10:01:20.293Z,22.99
2018-07-12T10:02:20.227Z,23.09
2018-07-12T10:03:20.245Z,23.07
2018-07-12T10:04:20.274Z,23.07
2018-07-12T10:05:20.305Z,23.11
2018-07-12T10:06:20.333Z,23.04
2018-07-12T10:07:20.357Z,23.23
2018-07-12T10:08:20.386Z,23.23
2018-07-12T10:09:20.407Z,23.31
2018-07-12T10:10:20.439Z,23.23
2018-07-12T10:11:20.463Z,23.25
2018-07-12T10:12:20.491Z,23.19
2018-07-12T10:13:20.516Z,23.31
2018-07-12T10:14:20.549Z,23.18
2018-07-12T10:15:20.575Z,23.35
2018-07-12T10:16:20.595Z,23.34
2018-07-12T10:17:20.627Z,23.47
2018-07-12T10:18:20.653Z,23.35
2018-07-12T10:19:20.673Z,23.42
2018-07-12T10:20:20.701Z,23.52
2018-07-12T10:21:20.724Z,23.62
2018-07-12T10:22:20.759Z,23.71
2018-07-12T10:23:20.779Z,23.72
2018-07-12T10:24:20.809Z,23.75
2018-07-12T10:25:20.836Z,23.75
2018-07-12T10:26:20.864Z,23.79
2018-07-12T10:27:20.889Z,23.81
2018-07-12T10:28:20.918Z,23.79
2018-07-12T10:29:20.940Z,23.86
2018-07-12T10:30:20.970Z,24.02
2018-07-12T10:31:20.995Z,23.99
2018-07-12T10:32:21.021Z,24.05
2018-07-12T10:33:21.047Z,24.09
2018-07-12T10:34:21.076Z,24.15
2018-07-12T10:35:21.107Z,24.31
2018-07-12T10:36:21.132Z,24.31
2018-07-12T10:37:21.156Z,24.23
2018-07-12T10:38:21.183Z,24.23
2018-07-12T10:39:21.213Z,24.23
2018-07-12T10:41:21.260Z,24.36
2018-07-12T10:42:21.289Z,24.39
2018-07-12T10:43:21.323Z,24.27
2018-07-12T10:44:21.359Z,24.30
2018-07-12T10:45:21.367Z,24.51
2018-07-12T10:46:21.394Z,24.49
2018-07-12T10:47:21.426Z,24.60
2018-07-12T10:48:21.452Z,24.56
2018-07-12T10:49:21.481Z,24.67
2018-07-12T10:50:21.516Z,24.71
2018-07-12T10:51:21.528Z,24.67
2018-07-12T10:52:21.561Z,24.74
2018-07-12T10:53:21.584Z,24.67
2018-07-12T10:54:21.610Z,24.71
2018-07-12T10:55:21.644Z,24.80
2018-07-12T10:56:21.666Z,24.98
2018-07-12T10:57:21.694Z,25.05
2018-07-12T10:58:21.726Z,25.16
2018-07-12T10:59:21.746Z,25.27
2018-07-12T11:00:21.772Z,25.41
2018-07-12T11:01:21.809Z,25.57
2018-07-12T11:02:21.828Z,25.78
2018-07-12T11:03:21.856Z,25.90
2018-07-12T11:04:21.881Z,25.97
2018-07-12T11:05:21.916Z,26.16
2018-07-12T11:06:21.945Z,26.21
2018-07-12T11:07:21.967Z,26.31
2018-07-12T11:08:21.994Z,26.50
2018-07-12T11:09:22.022Z,26.79
2018-07-12T11:10:22.074Z,27.05
2018-07-12T11:11:22.080Z,27.53
2018-07-12T11:12:22.110Z,28.14
2018-07-12T11:13:22.137Z,28.67
2018-07-12T11:14:22.163Z,28.70
2018-07-12T11:15:22.198Z,28.79
2018-07-12T11:16:22.220Z,28.58
2018-07-12T11:17:22.258Z,28.35
2018-07-12T11:18:22.296Z,28.65
2018-07-12T11:19:22.322Z,28.32
2018-07-12T11:20:22.348Z,28.11
2018-07-12T11:21:22.378Z,27.84
2018-07-12T11:22:22.406Z,27.58
2018-07-12T11:23:22.433Z,27.11
2018-07-12T11:24:22.462Z,26.97
2018-07-12T11:25:22.498Z,26.73
2018-07-12T11:26:22.520Z,26.50
2018-07-12T11:27:22.562Z,26.41
2018-07-12T11:28:22.586Z,26.17
2018-07-12T11:29:22.618Z,26.00
2018-07-12T11:30:22.684Z,25.90
2018-07-12T11:31:22.690Z,25.71
2018-07-12T11:32:22.706Z,25.36
2018-07-12T11:33:22.730Z,25.22
2018-07-12T11:34:22.763Z,25.12
2018-07-12T11:35:22.794Z,25.12
2018-07-12T11:36:22.822Z,24.84
2018-07-12T11:37:22.846Z,24.87
2018-07-12T11:38:22.878Z,24.68
2018-07-12T11:39:22.908Z,24.71
2018-07-12T11:40:22.938Z,24.67
2018-07-12T11:41:22.992Z,24.53
2018-07-12T11:42:22.990Z,24.45
2018-07-12T11:43:23.027Z,24.45
2018-07-12T11:44:23.057Z,24.45
2018-07-12T11:45:23.080Z,24.39
2018-07-12T11:46:23.107Z,24.33
2018-07-12T11:47:23.137Z,24.36
2018-07-12T11:48:23.162Z,24.46
2018-07-12T11:49:23.196Z,24.34
2018-07-12T11:50:23.221Z,24.44
2018-07-12T11:51:23.246Z,24.34
2018-07-12T11:52:23.274Z,24.37
2018-07-12T11:53:23.302Z,24.45
2018-07-12T11:54:23.332Z,24.44
2018-07-12T11:55:23.354Z,24.45
2018-07-12T11:56:23.388Z,24.44
2018-07-12T11:57:23.419Z,24.56
2018-07-12T11:58:23.446Z,24.60
2018-07-12T11:59:23.471Z,24.61
2018-07-12T12:00:23.497Z,24.59
2018-07-12T12:01:23.545Z,24.64
2018-07-12T12:02:23.556Z,24.64
2018-07-12T12:03:23.592Z,24.67
2018-07-12T12:04:23.614Z,24.66
2018-07-12T12:05:23.635Z,24.66
2018-07-12T12:06:23.668Z,24.75
2018-07-12T12:07:23.693Z,24.84
2018-07-12T12:08:23.726Z,25.02
2018-07-12T12:09:23.752Z,25.27
2018-07-12T12:10:23.776Z,25.29
2018-07-12T12:11:23.806Z,25.44
2018-07-12T12:12:23.832Z,25.49
2018-07-12T12:13:23.858Z,25.71
2018-07-12T12:14:23.897Z,25.82
2018-07-12T12:15:23.916Z,26.21
2018-07-12T12:16:23.945Z,26.59
2018-07-12T12:17:23.972Z,26.81
2018-07-12T12:18:24.001Z,26.78
2018-07-12T12:19:24.070Z,27.03
2018-07-12T12:20:24.058Z,26.97
2018-07-12T12:21:24.088Z,26.76
2018-07-12T12:22:24.117Z,26.60
2018-07-12T12:23:24.138Z,26.47
2018-07-12T12:24:24.172Z,26.46
2018-07-12T12:25:24.200Z,26.32
2018-07-12T12:26:24.225Z,26.09
2018-07-12T12:27:24.306Z,26.20
2018-07-12T12:28:24.286Z,26.09
2018-07-12T12:29:24.320Z,26.12
2018-07-12T12:30:24.344Z,26.17
2018-07-12T12:31:24.370Z,26.12
2018-07-12T12:32:24.402Z,26.28
2018-07-12T12:33:24.463Z,26.29
2018-07-12T12:34:24.462Z,27.09
2018-07-12T12:35:24.490Z,29.51
2018-07-12T12:36:24.519Z,31.35
2018-07-12T12:37:24.545Z,32.63
2018-07-12T12:38:24.578Z,34.09
2018-07-12T12:39:24.615Z,35.10
2018-07-12T12:40:24.644Z,34.58
2018-07-12T12:41:24.674Z,33.89
2018-07-12T12:42:24.701Z,34.63
2018-07-12T12:43:24.733Z,35.39
2018-07-12T12:44:24.766Z,36.78
2018-07-12T12:45:24.807Z,35.29
2018-07-12T12:46:24.836Z,34.80
2018-07-12T12:47:24.868Z,33.71
2018-07-12T12:48:24.902Z,31.75
2018-07-12T12:49:24.933Z,30.88
2018-07-12T12:50:24.967Z,30.10
2018-07-12T12:51:24.999Z,29.44
2018-07-12T12:52:25.032Z,28.62
2018-07-12T12:53:25.069Z,27.98